Time;durP1;ratioP1;P1;durP2;ratioP2;P2;SDS_P1;SDS_P2;PMS_P1;PMS_P2;Temp;Humidity;BMP_temperature;BMP_pressure;BME280_temperature;BME280_humidity;BME280_pressure;Samples;Min_cycle;Max_cycle;Signal;HPM_P1;HPM_P2
2024/04/04 00:01:21;;;;;;;;;;;;;;;;;;2208238;67;1836;-18
2024/04/04 00:03:51;;;;;;;;;;;;;;;;;;2208768;67;2708;-18
2024/04/04 00:06:23;;;;;;;;;;;;;;;;;;2208761;59;1880;-18
2024/04/04 00:08:53;;;;;;;;;;;;;;;;;;2209095;67;1888;-17
2024/04/04 00:11:23;;;;;;;;;;;;;;;;;;2208015;59;2509;-18
2024/04/04 00:13:54;;;;;;;;;;;;;;;;;;2209281;59;1819;-18
2024/04/04 00:16:24;;;;;;;;;;;;;;;;;;2208922;67;2372;-17
2024/04/04 00:18:54;;;;;;;;;;;;;;;;;;2208993;67;2199;-17
2024/04/04 00:21:25;;;;;;;;;;;;;;;;;;2208464;59;2339;-18
2024/04/04 00:23:57;;;;;;;;;;;;;;;;;;2209583;67;2146;-18
2024/04/04 00:26:27;;;;;;;;;;;;;;;;;;2207685;66;2732;-18
2024/04/04 00:28:57;;;;;;;;;;;;;;;;;;2209457;67;2153;-18
2024/04/04 00:31:28;;;;;;;;;;;;;;;;;;2210829;66;1850;-18
2024/04/04 00:33:59;;;;;;;;;;;;;;;;;;2208645;67;1782;-18
2024/04/04 00:36:29;;;;;;;;;;;;;;;;;;2208928;67;2792;-18
2024/04/04 00:39:00;;;;;;;;;;;;;;;;;;2209435;59;1973;-18
2024/04/04 00:41:30;;;;;;;;;;;;;;;;;;2208235;67;2479;-18
2024/04/04 00:44:01;;;;;;;;;;;;;;;;;;2212379;66;2711;-18
2024/04/04 00:46:31;;;;;;;;;;;;;;;;;;2208618;59;1931;-18
2024/04/04 00:49:02;;;;;;;;;;;;;;;;;;2209020;66;2154;-18
2024/04/04 00:51:32;;;;;;;;;;;;;;;;;;2209265;67;2943;-18
2024/04/04 00:54:03;;;;;;;;;;;;;;;;;;2209109;67;2049;-18
2024/04/04 00:56:33;;;;;;;;;;;;;;;;;;2205432;67;1909;-18
2024/04/04 00:59:03;;;;;;;;;;;;;;;;;;2209523;59;2309;-18
2024/04/04 01:01:34;;;;;;;;;;;;;;;;;;2207935;67;1821;-18
2024/04/04 01:04:04;;;;;;;;;;;;;;;;;;2210201;67;2601;-18
2024/04/04 01:06:35;;;;;;;;;;;;;;;;;;2209561;67;1862;-18
2024/04/04 01:09:05;;;;;;;;;;;;;;;;;;2210137;59;2582;-18
2024/04/04 01:11:35;;;;;;;;;;;;;;;;;;2209091;67;1753;-18
2024/04/04 01:14:07;;;;;;;;;;;;;;;;;;2205927;59;2593;-18
2024/04/04 01:16:37;;;;;;;;;;;;;;;;;;2210797;58;1746;-18
2024/04/04 01:19:07;;;;;;;;;;;;;;;;;;2209220;59;3339;-18
2024/04/04 01:21:37;;;;;;;;;;;;;;;;;;2208199;67;1847;-18
2024/04/04 01:24:08;;;;;;;;;;;;;;;;;;2209854;59;1950;-18
2024/04/04 01:26:38;;;;;;;;;;;;;;;;;;2207178;67;1879;-18
2024/04/04 01:29:09;;;;;;;;;;;;;;;;;;2209505;67;1851;-18
2024/04/04 01:31:39;;;;;;;;;;;;;;;;;;2208362;67;2352;-18
2024/04/04 01:34:09;;;;;;;;;;;;;;;;;;2208702;67;1912;-18
2024/04/04 01:36:40;;;;;;;;;;;;;;;;;;2208303;67;1796;-18
2024/04/04 01:39:10;;;;;;;;;;;;;;;;;;2208833;59;2150;-18
2024/04/04 01:41:43;;;;;;;;;;;;;;;;;;2205535;59;1865;-18
2024/04/04 01:44:14;;;;;;;;;;;;;;;;;;2209687;67;1950;-18
2024/04/04 01:46:44;;;;;;;;;;;;;;;;;;2211719;58;2040;-18
2024/04/04 01:49:18;;;;;;;;;;;;;;;;;;2208792;67;2027;-18
2024/04/04 01:51:48;;;;;;;;;;;;;;;;;;2209446;66;1778;-18
2024/04/04 01:54:18;;;;;;;;;;;;;;;;;;2208325;67;2567;-18
2024/04/04 01:56:49;;;;;;;;;;;;;;;;;;2209623;67;2128;-18
2024/04/04 01:59:19;;;;;;;;;;;;;;;;;;2210100;66;1896;-18
2024/04/04 02:01:49;;;;;;;;;;;;;;;;;;2210138;67;2291;-17
2024/04/04 02:04:20;;;;;;;;;;;;;;;;;;2208418;59;2929;-17
2024/04/04 02:06:50;;;;;;;;;;;;;;;;;;2208610;67;2709;-18
2024/04/04 02:09:21;;;;;;;;;;;;;;;;;;2209763;59;2429;-17
2024/04/04 02:11:51;;;;;;;;;;;;;;;;;;2209224;67;1861;-18
2024/04/04 02:14:21;;;;;;;;;;;;;;;;;;2207151;59;1910;-17
2024/04/04 02:16:52;;;;;;;;;;;;;;;;;;2209015;67;2658;-18
2024/04/04 02:19:22;;;;;;;;;;;;;;;;;;2207941;59;1973;-17
2024/04/04 02:21:52;;;;;;;;;;;;;;;;;;2209759;67;1927;-18
2024/04/04 02:24:23;;;;;;;;;;;;;;;;;;2207624;67;2718;-17
2024/04/04 02:26:53;;;;;;;;;;;;;;;;;;2209415;66;1888;-18
2024/04/04 02:29:24;;;;;;;;;;;;;;;;;;2206831;67;1844;-17
2024/04/04 02:31:55;;;;;;;;;;;;;;;;;;2208823;67;2657;-18
2024/04/04 02:34:26;;;;;;;;;;;;;;;;;;2206972;59;1875;-17
2024/04/04 02:36:56;;;;;;;;;;;;;;;;;;2207857;59;1928;-18
2024/04/04 02:39:28;;;;;;;;;;;;;;;;;;2207708;59;2606;-18
2024/04/04 02:41:58;;;;;;;;;;;;;;;;;;2208083;67;1897;-18
2024/04/04 02:44:29;;;;;;;;;;;;;;;;;;2206527;59;1939;-17
2024/04/04 02:47:00;;;;;;;;;;;;;;;;;;2209195;67;2374;-18
2024/04/04 02:49:30;;;;;;;;;;;;;;;;;;2208283;59;2766;-18
2024/04/04 02:52:01;;;;;;;;;;;;;;;;;;2209982;59;2486;-18
2024/04/04 02:54:31;;;;;;;;;;;;;;;;;;2207806;67;2654;-18
2024/04/04 02:57:01;;;;;;;;;;;;;;;;;;2208697;67;1904;-18
2024/04/04 02:59:32;;;;;;;;;;;;;;;;;;2206753;67;2574;-17
2024/04/04 03:02:02;;;;;;;;;;;;;;;;;;2208963;67;2123;-18
2024/04/04 03:04:34;;;;;;;;;;;;;;;;;;2207263;67;1983;-18
2024/04/04 03:07:04;;;;;;;;;;;;;;;;;;2209139;59;2873;-18
2024/04/04 03:09:34;;;;;;;;;;;;;;;;;;2207901;59;2289;-17
2024/04/04 03:12:05;;;;;;;;;;;;;;;;;;2208453;59;2640;-18
2024/04/04 03:14:35;;;;;;;;;;;;;;;;;;2207622;59;1867;-18
2024/04/04 03:17:06;;;;;;;;;;;;;;;;;;2208258;67;2773;-18
2024/04/04 03:19:36;;;;;;;;;;;;;;;;;;2208839;59;2227;-18
2024/04/04 03:22:06;;;;;;;;;;;;;;;;;;2208650;67;1968;-18
2024/04/04 03:24:37;;;;;;;;;;;;;;;;;;2208445;67;1940;-18
2024/04/04 03:27:07;;;;;;;;;;;;;;;;;;2212223;66;1924;-18
2024/04/04 03:29:38;;;;;;;;;;;;;;;;;;2207717;67;1990;-18
2024/04/04 03:32:08;;;;;;;;;;;;;;;;;;2209189;67;1819;-18
2024/04/04 03:34:38;;;;;;;;;;;;;;;;;;2208710;59;1894;-18
2024/04/04 03:37:09;;;;;;;;;;;;;;;;;;2209035;59;2773;-18
2024/04/04 03:39:39;;;;;;;;;;;;;;;;;;2212025;58;2206;-17
2024/04/04 03:42:10;;;;;;;;;;;;;;;;;;2209678;63;2470;-18
2024/04/04 03:44:40;;;;;;;;;;;;;;;;;;2208595;59;2372;-18
2024/04/04 03:47:13;;;;;;;;;;;;;;;;;;2209461;67;2724;-18
2024/04/04 03:49:44;;;;;;;;;;;;;;;;;;2208224;67;1777;-18
2024/04/04 03:52:14;;;;;;;;;;;;;;;;;;2207961;67;2811;-18
2024/04/04 03:54:45;;;;;;;;;;;;;;;;;;2208764;66;1893;-17
2024/04/04 03:57:15;;;;;;;;;;;;;;;;;;2208768;60;1739;-17
2024/04/04 03:59:45;;;;;;;;;;;;;;;;;;2208991;59;1965;-18
2024/04/04 04:02:16;;;;;;;;;;;;;;;;;;2209939;67;2331;-17
2024/04/04 04:04:46;;;;;;;;;;;;;;;;;;2206219;67;2054;-18
2024/04/04 04:07:16;;;;;;;;;;;;;;;;;;2209223;59;1799;-18
2024/04/04 04:09:47;;;;;;;;;;;;;;;;;;2208143;59;1943;-18
2024/04/04 04:12:17;;;;;;;;;;;;;;;;;;2210005;67;1868;-17
2024/04/04 04:14:49;;;;;;;;;;;;;;;;;;2209633;59;1953;-18
2024/04/04 04:17:20;;;;;;;;;;;;;;;;;;2209911;67;2673;-17
2024/04/04 04:19:50;;;;;;;;;;;;;;;;;;2208760;59;2519;-18
2024/04/04 04:22:21;;;;;;;;;;;;;;;;;;2210160;67;1932;-18
2024/04/04 04:24:51;;;;;;;;;;;;;;;;;;2208720;59;1933;-18
2024/04/04 04:27:22;;;;;;;;;;;;;;;;;;2209578;67;1773;-17
2024/04/04 04:29:52;;;;;;;;;;;;;;;;;;2208826;66;2332;-18
2024/04/04 04:32:22;;;;;;;;;;;;;;;;;;2210082;67;1767;-18
2024/04/04 04:34:53;;;;;;;;;;;;;;;;;;2209250;59;1790;-17
2024/04/04 04:37:23;;;;;;;;;;;;;;;;;;2209755;59;2165;-18
2024/04/04 04:39:53;;;;;;;;;;;;;;;;;;2209163;59;1958;-18
2024/04/04 04:42:24;;;;;;;;;;;;;;;;;;2209492;59;1733;-18
2024/04/04 04:44:55;;;;;;;;;;;;;;;;;;2208247;59;1935;-18
2024/04/04 04:47:26;;;;;;;;;;;;;;;;;;2209218;67;1809;-18
2024/04/04 04:49:56;;;;;;;;;;;;;;;;;;2208493;67;2575;-18
2024/04/04 04:52:27;;;;;;;;;;;;;;;;;;2209562;67;1792;-18
2024/04/04 04:54:57;;;;;;;;;;;;;;;;;;2209573;67;1941;-18
2024/04/04 04:57:27;;;;;;;;;;;;;;;;;;2209129;67;1797;-18
2024/04/04 04:59:58;;;;;;;;;;;;;;;;;;2208472;59;2014;-18
2024/04/04 05:02:29;;;;;;;;;;;;;;;;;;2208990;67;1805;-18
2024/04/04 05:05:11;;;;;;;;;;;;;;;;;;2211676;66;1940;-18
2024/04/04 05:07:41;;;;;;;;;;;;;;;;;;2207743;67;1936;-18
2024/04/04 05:10:12;;;;;;;;;;;;;;;;;;2208043;59;1936;-18
2024/04/04 05:12:43;;;;;;;;;;;;;;;;;;2207757;59;2882;-17
2024/04/04 05:15:13;;;;;;;;;;;;;;;;;;2209837;59;2232;-18
2024/04/04 05:17:44;;;;;;;;;;;;;;;;;;2207084;58;2669;-18
2024/04/04 05:20:14;;;;;;;;;;;;;;;;;;2210217;58;2146;-18
2024/04/04 05:22:44;;;;;;;;;;;;;;;;;;2209035;58;2145;-18
2024/04/04 05:25:15;;;;;;;;;;;;;;;;;;2210125;67;2022;-18
2024/04/04 05:27:45;;;;;;;;;;;;;;;;;;2208745;59;1676;-18
2024/04/04 05:30:16;;;;;;;;;;;;;;;;;;2208396;59;3529;-18
2024/04/04 05:32:46;;;;;;;;;;;;;;;;;;2207652;59;2516;-18
2024/04/04 05:35:16;;;;;;;;;;;;;;;;;;2209562;59;2294;-18
2024/04/04 05:37:47;;;;;;;;;;;;;;;;;;2209427;59;2769;-18
2024/04/04 05:40:17;;;;;;;;;;;;;;;;;;2209260;59;2384;-18
2024/04/04 05:42:47;;;;;;;;;;;;;;;;;;2208857;67;2009;-18
2024/04/04 05:45:18;;;;;;;;;;;;;;;;;;2209189;59;2583;-18
2024/04/04 05:47:48;;;;;;;;;;;;;;;;;;2208651;67;1901;-18
2024/04/04 05:50:18;;;;;;;;;;;;;;;;;;2208981;59;2331;-18
2024/04/04 05:52:48;;;;;;;;;;;;;;;;;;2206645;67;2594;-18
2024/04/04 05:55:19;;;;;;;;;;;;;;;;;;2209576;67;1933;-18
2024/04/04 05:57:49;;;;;;;;;;;;;;;;;;2207989;67;2126;-18
2024/04/04 06:00:20;;;;;;;;;;;;;;;;;;2210049;58;2701;-18
2024/04/04 06:02:51;;;;;;;;;;;;;;;;;;2209117;59;1747;-18
2024/04/04 06:05:22;;;;;;;;;;;;;;;;;;2210134;59;1971;-17
2024/04/04 06:07:52;;;;;;;;;;;;;;;;;;2208009;59;1770;-18
2024/04/04 06:10:22;;;;;;;;;;;;;;;;;;2209896;59;2267;-18
2024/04/04 06:12:53;;;;;;;;;;;;;;;;;;2208508;59;1644;-18
2024/04/04 06:15:26;;;;;;;;;;;;;;;;;;2209276;67;2139;-18
2024/04/04 06:17:56;;;;;;;;;;;;;;;;;;2208943;59;1868;-18
2024/04/04 06:20:26;;;;;;;;;;;;;;;;;;2210166;59;2471;-18
2024/04/04 06:22:56;;;;;;;;;;;;;;;;;;2209517;59;2210;-18
2024/04/04 06:25:27;;;;;;;;;;;;;;;;;;2209692;67;2919;-18
2024/04/04 06:27:57;;;;;;;;;;;;;;;;;;2209588;67;2959;-18
2024/04/04 06:30:27;;;;;;;;;;;;;;;;;;2208597;67;2482;-18
2024/04/04 06:32:58;;;;;;;;;;;;;;;;;;2208698;59;1813;-18
2024/04/04 06:35:28;;;;;;;;;;;;;;;;;;2209343;59;1797;-18
2024/04/04 06:38:02;;;;;;;;;;;;;;;;;;2209146;59;2427;-18
2024/04/04 06:40:36;;;;;;;;;;;;;;;;;;2207027;59;1963;-18
2024/04/04 06:43:07;;;;;;;;;;;;;;;;;;2208668;67;1722;-18
2024/04/04 06:45:37;;;;;;;;;;;;;;;;;;2209016;59;2450;-18
2024/04/04 06:48:08;;;;;;;;;;;;;;;;;;2209683;67;2706;-18
2024/04/04 06:50:38;;;;;;;;;;;;;;;;;;2208761;67;2088;-18
2024/04/04 06:53:08;;;;;;;;;;;;;;;;;;2210600;67;2048;-18
2024/04/04 06:55:38;;;;;;;;;;;;;;;;;;2208512;67;2964;-18
2024/04/04 06:58:09;;;;;;;;;;;;;;;;;;2210621;59;2459;-18
2024/04/04 07:00:40;;;;;;;;;;;;;;;;;;2209999;59;2340;-18
2024/04/04 07:03:10;;;;;;;;;;;;;;;;;;2207170;67;2433;-18
2024/04/04 07:05:40;;;;;;;;;;;;;;;;;;2208838;59;1945;-18
2024/04/04 07:08:11;;;;;;;;;;;;;;;;;;2210507;59;2283;-18
2024/04/04 07:10:41;;;;;;;;;;;;;;;;;;2209543;59;2676;-18
2024/04/04 07:13:13;;;;;;;;;;;;;;;;;;2211112;59;1758;-18
2024/04/04 07:15:43;;;;;;;;;;;;;;;;;;2207971;59;2593;-18
2024/04/04 07:18:13;;;;;;;;;;;;;;;;;;2209585;59;2405;-18
2024/04/04 07:20:51;;;;;;;;;;;;;;;;;;2208162;59;2559;-18
2024/04/04 07:23:21;;;;;;;;;;;;;;;;;;2210044;59;2439;-18
2024/04/04 07:25:52;;;;;;;;;;;;;;;;;;2207632;59;2607;-18
2024/04/04 07:28:23;;;;;;;;;;;;;;;;;;2209813;59;2416;-18
2024/04/04 07:30:54;;;;;;;;;;;;;;;;;;2207857;59;2304;-18
2024/04/04 07:33:24;;;;;;;;;;;;;;;;;;2210133;67;1986;-18
2024/04/04 07:35:55;;;;;;;;;;;;;;;;;;2208765;59;1752;-18
2024/04/04 07:38:25;;;;;;;;;;;;;;;;;;2209916;59;2567;-18
2024/04/04 07:40:55;;;;;;;;;;;;;;;;;;2207682;59;2573;-18
2024/04/04 07:43:25;;;;;;;;;;;;;;;;;;2210227;59;2400;-18
2024/04/04 07:45:56;;;;;;;;;;;;;;;;;;2205234;67;2408;-18
2024/04/04 07:48:26;;;;;;;;;;;;;;;;;;2210324;67;1690;-18
2024/04/04 07:50:57;;;;;;;;;;;;;;;;;;2208141;67;1972;-18
2024/04/04 07:53:28;;;;;;;;;;;;;;;;;;2210426;67;1663;-18
2024/04/04 07:55:58;;;;;;;;;;;;;;;;;;2211003;66;2038;-18
2024/04/04 07:58:28;;;;;;;;;;;;;;;;;;2210635;67;1970;-18
2024/04/04 08:01:02;;;;;;;;;;;;;;;;;;2207039;67;2301;-18
2024/04/04 08:03:33;;;;;;;;;;;;;;;;;;2207478;67;2275;-18
2024/04/04 08:06:04;;;;;;;;;;;;;;;;;;2208193;67;2373;-18
2024/04/04 08:08:34;;;;;;;;;;;;;;;;;;2210053;59;2236;-18
2024/04/04 08:11:06;;;;;;;;;;;;;;;;;;2208287;59;2213;-18
2024/04/04 08:13:37;;;;;;;;;;;;;;;;;;2208058;59;2257;-18
2024/04/04 08:16:08;;;;;;;;;;;;;;;;;;2207100;59;2331;-18
2024/04/04 08:18:38;;;;;;;;;;;;;;;;;;2208265;66;2412;-18
2024/04/04 08:21:08;;;;;;;;;;;;;;;;;;2208163;59;1803;-18
2024/04/04 08:23:39;;;;;;;;;;;;;;;;;;2205316;67;2349;-18
2024/04/04 08:26:09;;;;;;;;;;;;;;;;;;2207393;67;2049;-18
2024/04/04 08:28:40;;;;;;;;;;;;;;;;;;2208534;67;2347;-18
2024/04/04 08:31:10;;;;;;;;;;;;;;;;;;2207336;67;2096;-18
2024/04/04 08:33:41;;;;;;;;;;;;;;;;;;2208255;59;1821;-18
2024/04/04 08:36:11;;;;;;;;;;;;;;;;;;2207459;67;1889;-18
2024/04/04 08:38:41;;;;;;;;;;;;;;;;;;2208951;59;1837;-19
2024/04/04 08:41:13;;;;;;;;;;;;;;;;;;2208506;59;1734;-18
2024/04/04 08:43:43;;;;;;;;;;;;;;;;;;2208943;67;1289;-18
2024/04/04 08:46:14;;;;;;;;;;;;;;;;;;2209128;59;1935;-18
2024/04/04 08:48:44;;;;;;;;;;;;;;;;;;2209548;67;1641;-18
2024/04/04 08:51:15;;;;;;;;;;;;;;;;;;2209736;67;1296;-18
2024/04/04 08:53:45;;;;;;;;;;;;;;;;;;2209180;67;1295;-18
2024/04/04 08:56:15;;;;;;;;;;;;;;;;;;2209814;67;1675;-18
2024/04/04 08:58:46;;;;;;;;;;;;;;;;;;2208844;58;2177;-18
2024/04/04 09:01:16;;;;;;;;;;;;;;;;;;2208227;59;1637;-18
2024/04/04 09:03:46;;;;;;;;;;;;;;;;;;2207924;59;1629;-18
2024/04/04 09:06:18;;;;;;;;;;;;;;;;;;2210415;66;2375;-18
2024/04/04 09:08:50;;;;;;;;;;;;;;;;;;2206862;67;2347;-18
2024/04/04 09:11:25;;;;;;;;;;;;;;;;;;2208841;59;1742;-18
2024/04/04 09:14:21;;;;;;;;;;;;;;;;;;2206862;59;1946;-18
2024/04/04 09:16:51;;;;;;;;;;;;;;;;;;2205321;59;2521;-18
2024/04/04 09:19:22;;;;;;;;;;;;;;;;;;2208626;59;1724;-18
2024/04/04 09:21:52;;;;;;;;;;;;;;;;;;2206515;67;1717;-18
2024/04/04 09:24:22;;;;;;;;;;;;;;;;;;2209505;59;1968;-18
2024/04/04 09:26:53;;;;;;;;;;;;;;;;;;2206174;59;2666;-18
2024/04/04 09:29:27;;;;;;;;;;;;;;;;;;2209656;67;1545;-18
2024/04/04 09:31:57;;;;;;;;;;;;;;;;;;2207220;59;1525;-18
2024/04/04 09:34:28;;;;;;;;;;;;;;;;;;2209785;67;1924;-18
2024/04/04 09:37:02;;;;;;;;;;;;;;;;;;2206424;67;1480;-18
2024/04/04 09:39:35;;;;;;;;;;;;;;;;;;2208118;59;2253;-18
2024/04/04 09:42:06;;;;;;;;;;;;;;;;;;2206788;59;1564;-19
2024/04/04 09:44:36;;;;;;;;;;;;;;;;;;2207714;59;1991;-18
2024/04/04 09:47:07;;;;;;;;;;;;;;;;;;2205859;66;2033;-18
2024/04/04 09:49:38;;;;;;;;;;;;;;;;;;2207073;59;2529;-19
2024/04/04 09:52:08;;;;;;;;;;;;;;;;;;2207446;67;1763;-18
2024/04/04 09:54:39;;;;;;;;;;;;;;;;;;2210279;66;2379;-18
2024/04/04 09:57:10;;;;;;;;;;;;;;;;;;2205614;67;1693;-18
2024/04/04 09:59:40;;;;;;;;;;;;;;;;;;2208430;59;2207;-18
2024/04/04 10:02:10;;;;;;;;;;;;;;;;;;2205369;59;2486;-18
2024/04/04 10:04:41;;;;;;;;;;;;;;;;;;2206352;67;2003;-18
2024/04/04 10:07:13;;;;;;;;;;;;;;;;;;2204044;59;1494;-19
2024/04/04 10:09:43;;;;;;;;;;;;;;;;;;2204544;59;1914;-18
2024/04/04 10:12:13;;;;;;;;;;;;;;;;;;2207131;67;1662;-18
2024/04/04 10:14:50;;;;;;;;;;;;;;;;;;2208847;59;2036;-18
2024/04/04 10:17:21;;;;;;;;;;;;;;;;;;2207437;67;1866;-19
2024/04/04 10:19:52;;;;;;;;;;;;;;;;;;2207723;59;1935;-19
2024/04/04 10:22:24;;;;;;;;;;;;;;;;;;2207804;67;2143;-19
2024/04/04 10:25:02;;;;;;;;;;;;;;;;;;2206332;59;2321;-18
2024/04/04 10:27:33;;;;;;;;;;;;;;;;;;2207886;67;1736;-18
2024/04/04 10:30:03;;;;;;;;;;;;;;;;;;2207142;67;1959;-18
2024/04/04 10:32:34;;;;;;;;;;;;;;;;;;2208686;59;2076;-19
2024/04/04 10:35:05;;;;;;;;;;;;;;;;;;2207373;59;1658;-18
2024/04/04 10:37:35;;;;;;;;;;;;;;;;;;2208247;59;1684;-18
2024/04/04 10:40:06;;;;;;;;;;;;;;;;;;2206978;59;2392;-18
2024/04/04 10:42:36;;;;;;;;;;;;;;;;;;2208141;67;1475;-19
2024/04/04 10:45:07;;;;;;;;;;;;;;;;;;2207066;59;2089;-18
2024/04/04 10:47:38;;;;;;;;;;;;;;;;;;2208517;66;1338;-19
2024/04/04 10:50:08;;;;;;;;;;;;;;;;;;2207631;67;1656;-18
2024/04/04 10:52:38;;;;;;;;;;;;;;;;;;2208755;59;2221;-18
2024/04/04 10:55:09;;;;;;;;;;;;;;;;;;2209561;66;2572;-18
2024/04/04 10:57:39;;;;;;;;;;;;;;;;;;2206900;59;2557;-19
2024/04/04 11:00:11;;;;;;;;;;;;;;;;;;2202510;59;3446;-19
2024/04/04 11:02:44;;;;;;;;;;;;;;;;;;2207440;67;1493;-19
2024/04/04 11:05:16;;;;;;;;;;;;;;;;;;2203863;67;2006;-19
2024/04/04 11:07:46;;;;;;;;;;;;;;;;;;2205970;67;1557;-19
2024/04/04 11:10:17;;;;;;;;;;;;;;;;;;2205625;59;1815;-19
2024/04/04 11:12:47;;;;;;;;;;;;;;;;;;2203222;59;1580;-19
2024/04/04 11:15:22;;;;;;;;;;;;;;;;;;2205198;59;1681;-19
2024/04/04 11:17:52;;;;;;;;;;;;;;;;;;2205888;67;1566;-19
2024/04/04 11:20:23;;;;;;;;;;;;;;;;;;2206338;59;1836;-19
2024/04/04 11:22:55;;;;;;;;;;;;;;;;;;2205734;59;1665;-19
2024/04/04 11:25:25;;;;;;;;;;;;;;;;;;2206623;67;1995;-19
2024/04/04 11:27:56;;;;;;;;;;;;;;;;;;2205686;66;1863;-18
2024/04/04 11:30:26;;;;;;;;;;;;;;;;;;2208196;67;1560;-19
2024/04/04 11:32:56;;;;;;;;;;;;;;;;;;2206257;67;1692;-18
2024/04/04 11:35:27;;;;;;;;;;;;;;;;;;2208905;59;1909;-18
2024/04/04 11:37:57;;;;;;;;;;;;;;;;;;2206095;59;1643;-18
2024/04/04 11:40:28;;;;;;;;;;;;;;;;;;2209513;59;2566;-18
2024/04/04 11:42:58;;;;;;;;;;;;;;;;;;2207239;67;1694;-18
2024/04/04 11:45:29;;;;;;;;;;;;;;;;;;2209024;59;2004;-18
2024/04/04 11:47:59;;;;;;;;;;;;;;;;;;2208299;67;1767;-18
2024/04/04 11:50:31;;;;;;;;;;;;;;;;;;2209368;59;1611;-18
2024/04/04 11:53:02;;;;;;;;;;;;;;;;;;2205128;67;2205;-18
2024/04/04 11:55:33;;;;;;;;;;;;;;;;;;2206643;59;2495;-18
2024/04/04 11:58:03;;;;;;;;;;;;;;;;;;2206420;59;2317;-18
2024/04/04 12:00:34;;;;;;;;;;;;;;;;;;2208515;59;2182;-18
2024/04/04 12:03:05;;;;;;;;;;;;;;;;;;2208052;67;1708;-18
2024/04/04 12:05:36;;;;;;;;;;;;;;;;;;2209278;67;1973;-18
2024/04/04 12:08:07;;;;;;;;;;;;;;;;;;2208062;59;2115;-18
2024/04/04 12:10:37;;;;;;;;;;;;;;;;;;2208235;59;1653;-18
2024/04/04 12:13:07;;;;;;;;;;;;;;;;;;2206281;59;2622;-18
2024/04/04 12:15:38;;;;;;;;;;;;;;;;;;2207296;59;2637;-18
2024/04/04 12:20:57;;;;;;;;;;;;;;;;;;2208312;59;1718;-18
2024/04/04 12:23:28;;;;;;;;;;;;;;;;;;2208393;67;1622;-18
2024/04/04 12:25:58;;;;;;;;;;;;;;;;;;2208705;67;1950;-18
2024/04/04 12:28:28;;;;;;;;;;;;;;;;;;2207305;59;1692;-18
2024/04/04 12:30:59;;;;;;;;;;;;;;;;;;2208873;58;1831;-18
2024/04/04 12:33:29;;;;;;;;;;;;;;;;;;2209186;59;1578;-18
2024/04/04 12:36:00;;;;;;;;;;;;;;;;;;2208902;59;1166;-18
2024/04/04 12:38:30;;;;;;;;;;;;;;;;;;2209354;59;1324;-18
2024/04/04 12:41:00;;;;;;;;;;;;;;;;;;2209786;59;2797;-18
2024/04/04 12:43:30;;;;;;;;;;;;;;;;;;2208214;67;1613;-18
2024/04/04 12:46:02;;;;;;;;;;;;;;;;;;2209059;59;2016;-18
2024/04/04 12:48:33;;;;;;;;;;;;;;;;;;2209721;59;1285;-18
2024/04/04 12:51:03;;;;;;;;;;;;;;;;;;2208614;67;1615;-18
2024/04/04 12:53:33;;;;;;;;;;;;;;;;;;2210453;67;1545;-18
2024/04/04 12:56:04;;;;;;;;;;;;;;;;;;2208720;66;1731;-18
2024/04/04 12:58:35;;;;;;;;;;;;;;;;;;2210433;59;1655;-18
2024/04/04 13:01:05;;;;;;;;;;;;;;;;;;2208800;67;1398;-18
2024/04/04 13:03:36;;;;;;;;;;;;;;;;;;2209447;67;1355;-18
2024/04/04 13:06:06;;;;;;;;;;;;;;;;;;2208480;59;2006;-18
2024/04/04 13:08:36;;;;;;;;;;;;;;;;;;2210494;67;1193;-18
2024/04/04 13:11:08;;;;;;;;;;;;;;;;;;2209488;59;1673;-18
2024/04/04 13:13:39;;;;;;;;;;;;;;;;;;2210976;59;1321;-18
2024/04/04 13:16:09;;;;;;;;;;;;;;;;;;2209982;67;1744;-18
2024/04/04 13:18:40;;;;;;;;;;;;;;;;;;2210550;67;1155;-18
2024/04/04 13:21:11;;;;;;;;;;;;;;;;;;2208473;59;1400;-18
2024/04/04 13:23:42;;;;;;;;;;;;;;;;;;2209438;59;1325;-18
2024/04/04 13:26:12;;;;;;;;;;;;;;;;;;2209685;59;1935;-18
2024/04/04 13:28:46;;;;;;;;;;;;;;;;;;2209406;59;2164;-18
2024/04/04 13:31:17;;;;;;;;;;;;;;;;;;2208484;67;1535;-18
2024/04/04 13:33:47;;;;;;;;;;;;;;;;;;2209573;59;2104;-18
2024/04/04 13:36:17;;;;;;;;;;;;;;;;;;2208005;66;1442;-18
2024/04/04 13:38:48;;;;;;;;;;;;;;;;;;2210197;59;1310;-18
2024/04/04 13:41:18;;;;;;;;;;;;;;;;;;2211516;58;1850;-18
2024/04/04 13:43:48;;;;;;;;;;;;;;;;;;2210072;67;1401;-18
2024/04/04 13:46:19;;;;;;;;;;;;;;;;;;2209133;59;1992;-18
2024/04/04 13:48:49;;;;;;;;;;;;;;;;;;2209867;59;1441;-18
2024/04/04 13:51:19;;;;;;;;;;;;;;;;;;2206649;67;1928;-19
2024/04/04 13:53:51;;;;;;;;;;;;;;;;;;2209074;67;1352;-18
2024/04/04 13:56:21;;;;;;;;;;;;;;;;;;2209172;67;1650;-18
2024/04/04 13:58:51;;;;;;;;;;;;;;;;;;2209519;67;1307;-18
2024/04/04 14:01:22;;;;;;;;;;;;;;;;;;2209178;67;1604;-18
2024/04/04 14:03:52;;;;;;;;;;;;;;;;;;2209236;59;2124;-21
2024/04/04 14:06:22;;;;;;;;;;;;;;;;;;2205810;59;2416;-20
2024/04/04 14:08:54;;;;;;;;;;;;;;;;;;2208180;59;2013;-20
2024/04/04 14:11:24;;;;;;;;;;;;;;;;;;2206038;59;2189;-21
2024/04/04 14:13:54;;;;;;;;;;;;;;;;;;2207599;58;2281;-21
2024/04/04 14:16:30;;;;;;;;;;;;;;;;;;2209575;66;2015;-20
2024/04/04 14:19:04;;;;;;;;;;;;;;;;;;2210619;58;2255;-20
2024/04/04 14:21:35;;;;;;;;;;;;;;;;;;2207135;59;1393;-21
2024/04/04 14:24:05;;;;;;;;;;;;;;;;;;2208052;59;1910;-21
2024/04/04 14:26:38;;;;;;;;;;;;;;;;;;2206650;67;1465;-20
2024/04/04 14:29:09;;;;;;;;;;;;;;;;;;2209591;59;2257;-21
2024/04/04 14:31:40;;;;;;;;;;;;;;;;;;2205868;59;1623;-21
2024/04/04 14:34:12;;;;;;;;;;;;;;;;;;2207219;59;1790;-20
2024/04/04 14:36:42;;;;;;;;;;;;;;;;;;2206869;67;1770;-20
2024/04/04 14:39:13;;;;;;;;;;;;;;;;;;2207324;59;2030;-21
2024/04/04 14:41:44;;;;;;;;;;;;;;;;;;2208878;59;1306;-21
2024/04/04 14:44:15;;;;;;;;;;;;;;;;;;2207444;66;1927;-21
2024/04/04 14:46:45;;;;;;;;;;;;;;;;;;2208507;59;1395;-21
2024/04/04 14:49:15;;;;;;;;;;;;;;;;;;2207812;67;1658;-21
2024/04/04 14:51:50;;;;;;;;;;;;;;;;;;2208866;67;1602;-21
2024/04/04 14:54:21;;;;;;;;;;;;;;;;;;2208844;66;1636;-31
2024/04/04 14:56:52;;;;;;;;;;;;;;;;;;2209497;66;1954;-21
2024/04/04 14:59:22;;;;;;;;;;;;;;;;;;2206844;59;2033;-20
2024/04/04 15:01:53;;;;;;;;;;;;;;;;;;2208598;67;2982;-20
2024/04/04 15:04:23;;;;;;;;;;;;;;;;;;2208516;67;2134;-21
2024/04/04 15:06:54;;;;;;;;;;;;;;;;;;2209601;58;1717;-20
2024/04/04 15:09:24;;;;;;;;;;;;;;;;;;2208498;59;2072;-20
2024/04/04 15:11:56;;;;;;;;;;;;;;;;;;2209548;66;1488;-20
2024/04/04 15:14:26;;;;;;;;;;;;;;;;;;2207210;59;2529;-22
2024/04/04 15:16:56;;;;;;;;;;;;;;;;;;2209735;59;2529;-20
2024/04/04 15:19:27;;;;;;;;;;;;;;;;;;2204993;59;2112;-21
2024/04/04 15:21:57;;;;;;;;;;;;;;;;;;2210894;66;1746;-20
2024/04/04 15:24:27;;;;;;;;;;;;;;;;;;2207497;59;1945;-21
2024/04/04 15:26:58;;;;;;;;;;;;;;;;;;2207463;59;1639;-20
2024/04/04 15:29:29;;;;;;;;;;;;;;;;;;2207229;67;1536;-20
2024/04/04 15:31:59;;;;;;;;;;;;;;;;;;2209716;66;1286;-20
2024/04/04 15:34:29;;;;;;;;;;;;;;;;;;2207801;59;1624;-20
2024/04/04 15:37:00;;;;;;;;;;;;;;;;;;2209940;59;1600;-20
2024/04/04 15:39:30;;;;;;;;;;;;;;;;;;2208536;59;1723;-20
2024/04/04 15:42:02;;;;;;;;;;;;;;;;;;2209041;59;1716;-20
2024/04/04 15:44:32;;;;;;;;;;;;;;;;;;2206155;66;1944;-21
2024/04/04 15:47:03;;;;;;;;;;;;;;;;;;2209114;67;1510;-20
2024/04/04 15:49:33;;;;;;;;;;;;;;;;;;2206769;67;1587;-20
2024/04/04 15:52:03;;;;;;;;;;;;;;;;;;2208753;67;1772;-20
2024/04/04 15:54:34;;;;;;;;;;;;;;;;;;2208064;67;1694;-20
2024/04/04 15:57:04;;;;;;;;;;;;;;;;;;2209066;59;2589;-20
2024/04/04 15:59:34;;;;;;;;;;;;;;;;;;2208291;66;2076;-20
2024/04/04 16:02:05;;;;;;;;;;;;;;;;;;2203303;67;1670;-20
2024/04/04 16:04:39;;;;;;;;;;;;;;;;;;2207093;67;2023;-20
2024/04/04 16:07:09;;;;;;;;;;;;;;;;;;2208533;59;1829;-20
2024/04/04 16:09:40;;;;;;;;;;;;;;;;;;2211419;58;1787;-20
2024/04/04 16:12:10;;;;;;;;;;;;;;;;;;2210257;67;2104;-29
2024/04/04 16:14:42;;;;;;;;;;;;;;;;;;2208970;59;1536;-20
2024/04/04 16:17:13;;;;;;;;;;;;;;;;;;2209341;67;2486;-20
2024/04/04 16:19:43;;;;;;;;;;;;;;;;;;2209479;59;1666;-20
2024/04/04 16:22:14;;;;;;;;;;;;;;;;;;2209978;59;1411;-20
2024/04/04 16:24:44;;;;;;;;;;;;;;;;;;2204098;59;1932;-20
2024/04/04 16:27:14;;;;;;;;;;;;;;;;;;2210070;67;1722;-20
2024/04/04 16:29:44;;;;;;;;;;;;;;;;;;2209278;67;1616;-20
2024/04/04 16:32:15;;;;;;;;;;;;;;;;;;2209864;67;1626;-20
2024/04/04 16:34:45;;;;;;;;;;;;;;;;;;2209536;59;1758;-21
2024/04/04 16:37:15;;;;;;;;;;;;;;;;;;2209723;59;1369;-20
2024/04/04 16:39:46;;;;;;;;;;;;;;;;;;2209550;59;1642;-20
2024/04/04 16:42:16;;;;;;;;;;;;;;;;;;2211023;59;1454;-20
2024/04/04 16:44:46;;;;;;;;;;;;;;;;;;2208017;59;1986;-20
2024/04/04 16:47:17;;;;;;;;;;;;;;;;;;2211081;67;1642;-20
2024/04/04 16:49:47;;;;;;;;;;;;;;;;;;2208569;59;1821;-20
2024/04/04 16:52:17;;;;;;;;;;;;;;;;;;2210209;67;1484;-20
2024/04/04 16:54:48;;;;;;;;;;;;;;;;;;2208850;67;1330;-20
2024/04/04 16:57:18;;;;;;;;;;;;;;;;;;2209928;67;1391;-20
2024/04/04 16:59:49;;;;;;;;;;;;;;;;;;2208926;67;1432;-20
2024/04/04 17:02:19;;;;;;;;;;;;;;;;;;2209785;67;1389;-20
2024/04/04 17:04:50;;;;;;;;;;;;;;;;;;2208032;67;1916;-21
2024/04/04 17:07:20;;;;;;;;;;;;;;;;;;2209064;66;2053;-20
2024/04/04 17:09:50;;;;;;;;;;;;;;;;;;2207743;59;2179;-20
2024/04/04 17:12:22;;;;;;;;;;;;;;;;;;2209864;59;1600;-20
2024/04/04 17:14:52;;;;;;;;;;;;;;;;;;2209316;59;1455;-20
2024/04/04 17:17:23;;;;;;;;;;;;;;;;;;2208806;59;1332;-20
2024/04/04 17:19:57;;;;;;;;;;;;;;;;;;2208338;59;2146;-20
2024/04/04 17:22:28;;;;;;;;;;;;;;;;;;2209261;67;1475;-21
2024/04/04 17:24:59;;;;;;;;;;;;;;;;;;2208695;59;1940;-20
2024/04/04 17:27:29;;;;;;;;;;;;;;;;;;2209223;67;1309;-20
2024/04/04 17:29:59;;;;;;;;;;;;;;;;;;2209530;67;1374;-20